sensor_id;sensor_type;location;lat;lon;timestamp;temperature;humidity
2639;DHT22;1329;51.384;7.122;2022-12-07T00:01:04;7.00;99.90
2639;DHT22;1329;51.384;7.122;2022-12-07T00:03:31;7.00;99.90
2639;DHT22;1329;51.384;7.122;2022-12-07T00:05:58;7.00;99.90
2639;DHT22;1329;51.384;7.122;2022-12-07T00:08:26;7.00;99.90
2639;DHT22;1329;51.384;7.122;2022-12-07T00:10:53;7.00;99.90
2639;DHT22;1329;51.384;7.122;2022-12-07T00:13:20;7.00;99.90
2639;DHT22;1329;51.384;7.122;2022-12-07T00:15:48;7.00;99.90
2639;DHT22;1329;51.384;7.122;2022-12-07T00:18:15;7.00;99.90
2639;DHT22;1329;51.384;7.122;2022-12-07T00:20:42;7.00;99.90
2639;DHT22;1329;51.384;7.122;2022-12-07T00:23:09;7.00;99.90
2639;DHT22;1329;51.384;7.122;2022-12-07T00:25:36;7.00;99.90
2639;DHT22;1329;51.384;7.122;2022-12-07T00:28:04;7.00;99.90
2639;DHT22;1329;51.384;7.122;2022-12-07T00:30:33;7.00;99.90
2639;DHT22;1329;51.384;7.122;2022-12-07T00:33:01;7.00;99.90
2639;DHT22;1329;51.384;7.122;2022-12-07T00:35:28;7.00;99.90
2639;DHT22;1329;51.384;7.122;2022-12-07T00:37:56;7.00;99.90
2639;DHT22;1329;51.384;7.122;2022-12-07T00:40:24;7.00;99.90
2639;DHT22;1329;51.384;7.122;2022-12-07T00:42:51;7.00;99.90
2639;DHT22;1329;51.384;7.122;2022-12-07T00:45:19;7.10;99.90
2639;DHT22;1329;51.384;7.122;2022-12-07T00:47:46;7.00;99.90
2639;DHT22;1329;51.384;7.122;2022-12-07T00:50:14;7.00;99.90
2639;DHT22;1329;51.384;7.122;2022-12-07T00:52:41;7.00;99.90
2639;DHT22;1329;51.384;7.122;2022-12-07T00:55:08;7.00;99.90
2639;DHT22;1329;51.384;7.122;2022-12-07T00:57:35;7.00;99.90
2639;DHT22;1329;51.384;7.122;2022-12-07T01:00:03;7.00;99.90
2639;DHT22;1329;51.384;7.122;2022-12-07T01:02:31;7.00;99.90
2639;DHT22;1329;51.384;7.122;2022-12-07T01:04:59;7.00;99.90
2639;DHT22;1329;51.384;7.122;2022-12-07T01:07:27;7.00;99.90
2639;DHT22;1329;51.384;7.122;2022-12-07T01:09:54;7.00;99.90
2639;DHT22;1329;51.384;7.122;2022-12-07T01:12:21;7.00;99.90
2639;DHT22;1329;51.384;7.122;2022-12-07T01:14:48;7.00;99.90
2639;DHT22;1329;51.384;7.122;2022-12-07T01:17:15;7.00;99.90
2639;DHT22;1329;51.384;7.122;2022-12-07T01:19:42;7.00;99.90
2639;DHT22;1329;51.384;7.122;2022-12-07T01:22:10;7.10;99.90
2639;DHT22;1329;51.384;7.122;2022-12-07T01:24:41;7.10;99.90
2639;DHT22;1329;51.384;7.122;2022-12-07T01:27:08;7.10;99.90
2639;DHT22;1329;51.384;7.122;2022-12-07T01:29:35;7.10;99.90
2639;DHT22;1329;51.384;7.122;2022-12-07T01:32:02;7.10;99.90
2639;DHT22;1329;51.384;7.122;2022-12-07T01:34:29;7.10;99.90
2639;DHT22;1329;51.384;7.122;2022-12-07T01:36:57;7.10;99.90
2639;DHT22;1329;51.384;7.122;2022-12-07T01:39:24;7.10;99.90
2639;DHT22;1329;51.384;7.122;2022-12-07T01:41:53;7.10;99.90
2639;DHT22;1329;51.384;7.122;2022-12-07T01:44:22;7.10;99.90
2639;DHT22;1329;51.384;7.122;2022-12-07T01:46:52;7.10;99.90
2639;DHT22;1329;51.384;7.122;2022-12-07T01:49:26;7.10;99.90
2639;DHT22;1329;51.384;7.122;2022-12-07T01:52:04;7.10;99.90
2639;DHT22;1329;51.384;7.122;2022-12-07T01:54:37;7.10;99.90
2639;DHT22;1329;51.384;7.122;2022-12-07T01:57:07;7.10;99.90
2639;DHT22;1329;51.384;7.122;2022-12-07T01:59:35;7.10;99.90
2639;DHT22;1329;51.384;7.122;2022-12-07T02:02:07;7.10;99.90
2639;DHT22;1329;51.384;7.122;2022-12-07T02:04:37;7.10;99.90
2639;DHT22;1329;51.384;7.122;2022-12-07T02:07:05;7.10;99.90
2639;DHT22;1329;51.384;7.122;2022-12-07T02:09:33;7.10;99.90
2639;DHT22;1329;51.384;7.122;2022-12-07T02:12:00;7.10;99.90
2639;DHT22;1329;51.384;7.122;2022-12-07T02:14:29;7.10;99.90
2639;DHT22;1329;51.384;7.122;2022-12-07T02:17:07;7.10;99.90
2639;DHT22;1329;51.384;7.122;2022-12-07T02:20:10;7.10;99.90
2639;DHT22;1329;51.384;7.122;2022-12-07T02:23:00;7.10;99.90
2639;DHT22;1329;51.384;7.122;2022-12-07T02:26:15;7.20;99.90
2639;DHT22;1329;51.384;7.122;2022-12-07T02:29:07;7.10;99.90
2639;DHT22;1329;51.384;7.122;2022-12-07T02:31:43;7.10;99.90
2639;DHT22;1329;51.384;7.122;2022-12-07T02:34:18;7.10;99.90
2639;DHT22;1329;51.384;7.122;2022-12-07T02:36:53;7.20;99.90
2639;DHT22;1329;51.384;7.122;2022-12-07T02:39:28;7.10;99.90
2639;DHT22;1329;51.384;7.122;2022-12-07T02:42:04;7.20;99.90
2639;DHT22;1329;51.384;7.122;2022-12-07T02:44:38;7.10;99.90
2639;DHT22;1329;51.384;7.122;2022-12-07T02:47:10;7.10;99.90
2639;DHT22;1329;51.384;7.122;2022-12-07T02:49:39;7.20;99.90
2639;DHT22;1329;51.384;7.122;2022-12-07T02:52:07;7.10;99.90
2639;DHT22;1329;51.384;7.122;2022-12-07T02:54:34;7.10;99.90
2639;DHT22;1329;51.384;7.122;2022-12-07T02:57:13;7.10;99.90
2639;DHT22;1329;51.384;7.122;2022-12-07T02:59:57;7.20;99.90
2639;DHT22;1329;51.384;7.122;2022-12-07T03:02:38;7.20;99.90
2639;DHT22;1329;51.384;7.122;2022-12-07T03:05:20;7.10;99.90
2639;DHT22;1329;51.384;7.122;2022-12-07T03:08:02;7.10;99.90
2639;DHT22;1329;51.384;7.122;2022-12-07T03:10:41;7.10;99.90
2639;DHT22;1329;51.384;7.122;2022-12-07T03:13:28;7.10;99.90
2639;DHT22;1329;51.384;7.122;2022-12-07T03:16:04;7.10;99.90
2639;DHT22;1329;51.384;7.122;2022-12-07T03:18:36;7.10;99.90
2639;DHT22;1329;51.384;7.122;2022-12-07T03:21:08;7.10;99.90
2639;DHT22;1329;51.384;7.122;2022-12-07T03:23:42;7.10;99.90
2639;DHT22;1329;51.384;7.122;2022-12-07T03:26:14;7.10;99.90
2639;DHT22;1329;51.384;7.122;2022-12-07T03:28:47;7.10;99.90
2639;DHT22;1329;51.384;7.122;2022-12-07T03:31:19;7.00;99.90
2639;DHT22;1329;51.384;7.122;2022-12-07T03:33:55;7.00;99.90
2639;DHT22;1329;51.384;7.122;2022-12-07T03:36:30;7.00;99.90
2639;DHT22;1329;51.384;7.122;2022-12-07T03:39:04;6.90;99.90
2639;DHT22;1329;51.384;7.122;2022-12-07T03:41:39;7.00;99.90
2639;DHT22;1329;51.384;7.122;2022-12-07T03:44:07;7.00;99.90
2639;DHT22;1329;51.384;7.122;2022-12-07T03:46:42;7.00;99.90
2639;DHT22;1329;51.384;7.122;2022-12-07T03:49:18;6.90;99.90
2639;DHT22;1329;51.384;7.122;2022-12-07T03:51:55;7.00;99.90
2639;DHT22;1329;51.384;7.122;2022-12-07T03:54:29;6.90;99.90
2639;DHT22;1329;51.384;7.122;2022-12-07T03:56:58;6.90;99.90
2639;DHT22;1329;51.384;7.122;2022-12-07T03:59:26;6.90;99.90
2639;DHT22;1329;51.384;7.122;2022-12-07T04:01:57;6.80;99.90
2639;DHT22;1329;51.384;7.122;2022-12-07T04:04:28;6.80;99.90
2639;DHT22;1329;51.384;7.122;2022-12-07T04:06:55;6.80;99.90
2639;DHT22;1329;51.384;7.122;2022-12-07T04:09:23;6.80;99.90
2639;DHT22;1329;51.384;7.122;2022-12-07T04:11:50;6.80;99.90
2639;DHT22;1329;51.384;7.122;2022-12-07T04:14:17;6.80;99.90
2639;DHT22;1329;51.384;7.122;2022-12-07T04:16:44;6.80;99.90
2639;DHT22;1329;51.384;7.122;2022-12-07T04:19:13;6.80;99.90
2639;DHT22;1329;51.384;7.122;2022-12-07T04:21:41;6.90;99.90
2639;DHT22;1329;51.384;7.122;2022-12-07T04:24:09;6.80;99.90
2639;DHT22;1329;51.384;7.122;2022-12-07T04:26:36;6.90;99.90
2639;DHT22;1329;51.384;7.122;2022-12-07T04:29:03;6.80;99.90
2639;DHT22;1329;51.384;7.122;2022-12-07T04:31:30;6.80;99.90
2639;DHT22;1329;51.384;7.122;2022-12-07T04:33:57;6.80;99.90
2639;DHT22;1329;51.384;7.122;2022-12-07T04:36:26;6.80;99.90
2639;DHT22;1329;51.384;7.122;2022-12-07T04:38:53;6.80;99.90
2639;DHT22;1329;51.384;7.122;2022-12-07T04:41:21;6.80;99.90
2639;DHT22;1329;51.384;7.122;2022-12-07T04:43:53;6.80;99.90
2639;DHT22;1329;51.384;7.122;2022-12-07T04:46:21;6.80;99.90
2639;DHT22;1329;51.384;7.122;2022-12-07T04:48:49;6.80;99.90
2639;DHT22;1329;51.384;7.122;2022-12-07T04:51:19;6.80;99.90
2639;DHT22;1329;51.384;7.122;2022-12-07T04:53:51;6.80;99.90
2639;DHT22;1329;51.384;7.122;2022-12-07T04:56:18;6.80;99.90
2639;DHT22;1329;51.384;7.122;2022-12-07T04:58:47;6.80;99.90
2639;DHT22;1329;51.384;7.122;2022-12-07T05:01:15;6.80;99.90
2639;DHT22;1329;51.384;7.122;2022-12-07T05:03:43;6.80;99.90
2639;DHT22;1329;51.384;7.122;2022-12-07T05:06:11;6.80;99.90
2639;DHT22;1329;51.384;7.122;2022-12-07T05:08:39;6.70;99.90
2639;DHT22;1329;51.384;7.122;2022-12-07T05:11:09;6.80;99.90
2639;DHT22;1329;51.384;7.122;2022-12-07T05:13:58;6.70;99.90
2639;DHT22;1329;51.384;7.122;2022-12-07T05:16:25;6.70;99.90
2639;DHT22;1329;51.384;7.122;2022-12-07T05:18:53;6.70;99.90
2639;DHT22;1329;51.384;7.122;2022-12-07T05:21:20;6.80;99.90
2639;DHT22;1329;51.384;7.122;2022-12-07T05:23:47;6.70;99.90
2639;DHT22;1329;51.384;7.122;2022-12-07T05:26:16;6.70;99.90
2639;DHT22;1329;51.384;7.122;2022-12-07T05:28:43;6.70;99.90
2639;DHT22;1329;51.384;7.122;2022-12-07T05:31:10;6.70;99.90
2639;DHT22;1329;51.384;7.122;2022-12-07T05:33:38;6.70;99.90
2639;DHT22;1329;51.384;7.122;2022-12-07T05:36:05;6.70;99.90
2639;DHT22;1329;51.384;7.122;2022-12-07T05:38:33;6.70;99.90
2639;DHT22;1329;51.384;7.122;2022-12-07T05:41:01;6.70;99.90
2639;DHT22;1329;51.384;7.122;2022-12-07T05:43:30;6.70;99.90
2639;DHT22;1329;51.384;7.122;2022-12-07T05:45:57;6.60;99.90
2639;DHT22;1329;51.384;7.122;2022-12-07T05:48:25;6.60;99.90
2639;DHT22;1329;51.384;7.122;2022-12-07T05:50:54;6.70;99.90
2639;DHT22;1329;51.384;7.122;2022-12-07T05:53:21;6.60;99.90
2639;DHT22;1329;51.384;7.122;2022-12-07T05:55:48;6.70;99.90
2639;DHT22;1329;51.384;7.122;2022-12-07T05:58:18;6.60;99.90
2639;DHT22;1329;51.384;7.122;2022-12-07T06:01:04;6.60;99.90
2639;DHT22;1329;51.384;7.122;2022-12-07T06:03:31;6.60;99.90
2639;DHT22;1329;51.384;7.122;2022-12-07T06:05:58;6.60;99.90
2639;DHT22;1329;51.384;7.122;2022-12-07T06:08:25;6.70;99.90
2639;DHT22;1329;51.384;7.122;2022-12-07T06:10:52;6.60;99.90
2639;DHT22;1329;51.384;7.122;2022-12-07T06:13:40;6.70;99.90
2639;DHT22;1329;51.384;7.122;2022-12-07T06:16:07;6.60;99.90
2639;DHT22;1329;51.384;7.122;2022-12-07T06:18:35;6.60;99.90
2639;DHT22;1329;51.384;7.122;2022-12-07T06:21:03;6.70;99.90
2639;DHT22;1329;51.384;7.122;2022-12-07T06:23:30;6.60;99.90
2639;DHT22;1329;51.384;7.122;2022-12-07T06:25:57;6.60;99.90
2639;DHT22;1329;51.384;7.122;2022-12-07T06:28:24;6.60;99.90
2639;DHT22;1329;51.384;7.122;2022-12-07T06:30:57;6.60;99.90
2639;DHT22;1329;51.384;7.122;2022-12-07T06:33:27;6.60;99.90
2639;DHT22;1329;51.384;7.122;2022-12-07T06:35:54;6.60;99.90
2639;DHT22;1329;51.384;7.122;2022-12-07T06:38:22;6.60;99.90
2639;DHT22;1329;51.384;7.122;2022-12-07T06:40:49;6.60;99.90
2639;DHT22;1329;51.384;7.122;2022-12-07T06:43:16;6.60;99.90
2639;DHT22;1329;51.384;7.122;2022-12-07T06:45:43;6.50;99.90
2639;DHT22;1329;51.384;7.122;2022-12-07T06:48:10;6.50;99.90
2639;DHT22;1329;51.384;7.122;2022-12-07T06:50:40;6.50;99.90
2639;DHT22;1329;51.384;7.122;2022-12-07T06:53:08;6.50;99.90
2639;DHT22;1329;51.384;7.122;2022-12-07T06:55:35;6.50;99.90
2639;DHT22;1329;51.384;7.122;2022-12-07T06:58:02;6.50;99.90
2639;DHT22;1329;51.384;7.122;2022-12-07T07:00:30;6.50;99.90
2639;DHT22;1329;51.384;7.122;2022-12-07T07:02:57;6.50;99.90
2639;DHT22;1329;51.384;7.122;2022-12-07T07:05:24;6.50;99.90
2639;DHT22;1329;51.384;7.122;2022-12-07T07:07:55;6.50;99.90
2639;DHT22;1329;51.384;7.122;2022-12-07T07:10:25;6.50;99.90
2639;DHT22;1329;51.384;7.122;2022-12-07T07:12:52;6.50;99.90
2639;DHT22;1329;51.384;7.122;2022-12-07T07:15:21;6.50;99.90
2639;DHT22;1329;51.384;7.122;2022-12-07T07:17:48;6.50;99.90
2639;DHT22;1329;51.384;7.122;2022-12-07T07:20:15;6.50;99.90
2639;DHT22;1329;51.384;7.122;2022-12-07T07:22:44;6.50;99.90
2639;DHT22;1329;51.384;7.122;2022-12-07T07:25:12;6.50;99.90
2639;DHT22;1329;51.384;7.122;2022-12-07T07:27:39;6.40;99.90
2639;DHT22;1329;51.384;7.122;2022-12-07T07:30:07;6.40;99.90
2639;DHT22;1329;51.384;7.122;2022-12-07T07:32:35;6.40;99.90
2639;DHT22;1329;51.384;7.122;2022-12-07T07:35:03;6.40;99.90
2639;DHT22;1329;51.384;7.122;2022-12-07T07:37:31;6.30;99.90
2639;DHT22;1329;51.384;7.122;2022-12-07T07:39:58;6.30;99.90
2639;DHT22;1329;51.384;7.122;2022-12-07T07:42:27;6.30;99.90
2639;DHT22;1329;51.384;7.122;2022-12-07T07:44:54;6.30;99.90
2639;DHT22;1329;51.384;7.122;2022-12-07T07:47:21;6.30;99.90
2639;DHT22;1329;51.384;7.122;2022-12-07T07:49:49;6.30;99.90
2639;DHT22;1329;51.384;7.122;2022-12-07T07:52:16;6.20;99.90
2639;DHT22;1329;51.384;7.122;2022-12-07T07:54:43;6.20;99.90
2639;DHT22;1329;51.384;7.122;2022-12-07T07:57:10;6.20;99.90
2639;DHT22;1329;51.384;7.122;2022-12-07T07:59:39;6.30;99.90
2639;DHT22;1329;51.384;7.122;2022-12-07T08:02:09;6.30;99.90
2639;DHT22;1329;51.384;7.122;2022-12-07T08:04:42;6.30;99.90
2639;DHT22;1329;51.384;7.122;2022-12-07T08:07:12;6.30;99.90
2639;DHT22;1329;51.384;7.122;2022-12-07T08:09:40;6.30;99.90
2639;DHT22;1329;51.384;7.122;2022-12-07T08:12:08;6.30;99.90
2639;DHT22;1329;51.384;7.122;2022-12-07T08:14:35;6.40;99.90
2639;DHT22;1329;51.384;7.122;2022-12-07T08:17:04;6.40;99.90
2639;DHT22;1329;51.384;7.122;2022-12-07T08:19:36;6.40;99.90
2639;DHT22;1329;51.384;7.122;2022-12-07T08:22:04;6.40;99.90
2639;DHT22;1329;51.384;7.122;2022-12-07T08:24:35;6.40;99.90
2639;DHT22;1329;51.384;7.122;2022-12-07T08:27:03;6.50;99.90
2639;DHT22;1329;51.384;7.122;2022-12-07T08:29:31;6.50;99.90
2639;DHT22;1329;51.384;7.122;2022-12-07T08:31:58;6.50;99.90
2639;DHT22;1329;51.384;7.122;2022-12-07T08:34:28;6.50;99.90
2639;DHT22;1329;51.384;7.122;2022-12-07T08:36:55;6.60;99.90
2639;DHT22;1329;51.384;7.122;2022-12-07T08:39:23;6.60;99.90
2639;DHT22;1329;51.384;7.122;2022-12-07T08:41:51;6.70;99.90
2639;DHT22;1329;51.384;7.122;2022-12-07T08:44:18;6.60;99.90
2639;DHT22;1329;51.384;7.122;2022-12-07T08:46:47;6.60;99.90
2639;DHT22;1329;51.384;7.122;2022-12-07T08:49:22;6.70;99.90
2639;DHT22;1329;51.384;7.122;2022-12-07T08:51:55;6.70;99.90
2639;DHT22;1329;51.384;7.122;2022-12-07T08:54:23;6.80;99.90
2639;DHT22;1329;51.384;7.122;2022-12-07T08:56:51;6.80;99.90
2639;DHT22;1329;51.384;7.122;2022-12-07T08:59:19;6.80;99.90
2639;DHT22;1329;51.384;7.122;2022-12-07T09:01:49;6.80;99.90
2639;DHT22;1329;51.384;7.122;2022-12-07T09:04:16;6.80;99.90
2639;DHT22;1329;51.384;7.122;2022-12-07T09:06:44;6.90;99.90
2639;DHT22;1329;51.384;7.122;2022-12-07T09:09:13;6.80;99.90
2639;DHT22;1329;51.384;7.122;2022-12-07T09:11:41;6.90;99.90
2639;DHT22;1329;51.384;7.122;2022-12-07T09:14:10;6.90;99.90
2639;DHT22;1329;51.384;7.122;2022-12-07T09:16:38;6.90;99.90
2639;DHT22;1329;51.384;7.122;2022-12-07T09:19:05;6.90;99.90
2639;DHT22;1329;51.384;7.122;2022-12-07T09:21:33;6.90;99.90
2639;DHT22;1329;51.384;7.122;2022-12-07T09:24:00;6.90;99.90
2639;DHT22;1329;51.384;7.122;2022-12-07T09:26:29;6.90;99.90
2639;DHT22;1329;51.384;7.122;2022-12-07T09:28:56;6.90;99.90
2639;DHT22;1329;51.384;7.122;2022-12-07T09:31:23;7.00;99.90
2639;DHT22;1329;51.384;7.122;2022-12-07T09:33:54;7.00;99.90
2639;DHT22;1329;51.384;7.122;2022-12-07T09:36:22;7.00;99.90
2639;DHT22;1329;51.384;7.122;2022-12-07T09:38:49;7.00;99.90
2639;DHT22;1329;51.384;7.122;2022-12-07T09:41:16;7.00;99.90
2639;DHT22;1329;51.384;7.122;2022-12-07T09:43:46;7.00;99.90
2639;DHT22;1329;51.384;7.122;2022-12-07T09:46:18;7.00;99.90
2639;DHT22;1329;51.384;7.122;2022-12-07T09:48:47;7.10;99.90
2639;DHT22;1329;51.384;7.122;2022-12-07T09:51:19;7.10;99.90
2639;DHT22;1329;51.384;7.122;2022-12-07T09:53:49;7.00;99.90
2639;DHT22;1329;51.384;7.122;2022-12-07T09:56:19;7.00;99.90
2639;DHT22;1329;51.384;7.122;2022-12-07T09:58:49;7.10;99.90
2639;DHT22;1329;51.384;7.122;2022-12-07T10:01:19;7.00;99.90
2639;DHT22;1329;51.384;7.122;2022-12-07T10:03:50;7.10;99.90
2639;DHT22;1329;51.384;7.122;2022-12-07T10:06:22;7.20;99.90
2639;DHT22;1329;51.384;7.122;2022-12-07T10:08:50;7.10;99.90
2639;DHT22;1329;51.384;7.122;2022-12-07T10:11:17;7.20;99.90
2639;DHT22;1329;51.384;7.122;2022-12-07T10:13:49;7.20;99.90
2639;DHT22;1329;51.384;7.122;2022-12-07T10:16:41;7.20;99.90
2639;DHT22;1329;51.384;7.122;2022-12-07T10:19:19;7.20;99.90
2639;DHT22;1329;51.384;7.122;2022-12-07T10:22:01;7.20;99.90
2639;DHT22;1329;51.384;7.122;2022-12-07T10:24:31;7.20;99.90
2639;DHT22;1329;51.384;7.122;2022-12-07T10:26:58;7.20;99.90
2639;DHT22;1329;51.384;7.122;2022-12-07T10:29:31;7.30;99.90
2639;DHT22;1329;51.384;7.122;2022-12-07T10:32:01;7.30;99.90
2639;DHT22;1329;51.384;7.122;2022-12-07T10:34:31;7.30;99.90
2639;DHT22;1329;51.384;7.122;2022-12-07T10:37:16;7.40;99.90
2639;DHT22;1329;51.384;7.122;2022-12-07T10:39:46;7.40;99.90
2639;DHT22;1329;51.384;7.122;2022-12-07T10:42:19;7.40;99.90
2639;DHT22;1329;51.384;7.122;2022-12-07T10:44:50;7.50;99.90
2639;DHT22;1329;51.384;7.122;2022-12-07T10:47:36;7.50;99.90
2639;DHT22;1329;51.384;7.122;2022-12-07T10:50:32;7.60;99.90
2639;DHT22;1329;51.384;7.122;2022-12-07T10:53:18;7.70;99.90
2639;DHT22;1329;51.384;7.122;2022-12-07T10:56:06;7.70;99.90
2639;DHT22;1329;51.384;7.122;2022-12-07T10:58:52;7.80;99.90
2639;DHT22;1329;51.384;7.122;2022-12-07T11:01:32;7.80;99.90
2639;DHT22;1329;51.384;7.122;2022-12-07T11:04:16;7.90;99.90
2639;DHT22;1329;51.384;7.122;2022-12-07T11:06:52;7.90;99.90
2639;DHT22;1329;51.384;7.122;2022-12-07T11:09:39;8.00;99.90
2639;DHT22;1329;51.384;7.122;2022-12-07T11:12:23;7.90;99.90
2639;DHT22;1329;51.384;7.122;2022-12-07T11:14:58;7.90;99.90
2639;DHT22;1329;51.384;7.122;2022-12-07T11:17:36;8.00;99.90
2639;DHT22;1329;51.384;7.122;2022-12-07T11:20:16;8.00;99.90
2639;DHT22;1329;51.384;7.122;2022-12-07T11:23:00;7.90;99.90
2639;DHT22;1329;51.384;7.122;2022-12-07T11:25:34;8.00;99.90
2639;DHT22;1329;51.384;7.122;2022-12-07T11:28:21;8.00;99.90
2639;DHT22;1329;51.384;7.122;2022-12-07T11:31:00;8.00;99.90
2639;DHT22;1329;51.384;7.122;2022-12-07T11:33:41;8.00;99.90
2639;DHT22;1329;51.384;7.122;2022-12-07T11:36:24;8.00;99.90
2639;DHT22;1329;51.384;7.122;2022-12-07T11:39:02;8.00;99.90
2639;DHT22;1329;51.384;7.122;2022-12-07T11:41:34;7.90;99.90
2639;DHT22;1329;51.384;7.122;2022-12-07T11:44:06;8.00;99.90
2639;DHT22;1329;51.384;7.122;2022-12-07T11:46:45;7.90;99.90
2639;DHT22;1329;51.384;7.122;2022-12-07T11:49:23;7.90;99.90
2639;DHT22;1329;51.384;7.122;2022-12-07T11:51:53;7.90;99.90
2639;DHT22;1329;51.384;7.122;2022-12-07T11:54:28;7.90;99.90
2639;DHT22;1329;51.384;7.122;2022-12-07T11:57:03;7.90;99.90
2639;DHT22;1329;51.384;7.122;2022-12-07T11:59:36;7.90;99.90
2639;DHT22;1329;51.384;7.122;2022-12-07T12:02:13;7.90;99.90
2639;DHT22;1329;51.384;7.122;2022-12-07T12:04:51;7.90;99.90
2639;DHT22;1329;51.384;7.122;2022-12-07T12:07:23;7.90;99.90
2639;DHT22;1329;51.384;7.122;2022-12-07T12:09:55;7.90;99.90
2639;DHT22;1329;51.384;7.122;2022-12-07T12:12:48;7.90;99.90
2639;DHT22;1329;51.384;7.122;2022-12-07T12:15:42;7.90;99.90
2639;DHT22;1329;51.384;7.122;2022-12-07T12:18:43;7.90;99.90
2639;DHT22;1329;51.384;7.122;2022-12-07T12:21:17;7.90;99.90
2639;DHT22;1329;51.384;7.122;2022-12-07T12:23:50;7.90;99.90
2639;DHT22;1329;51.384;7.122;2022-12-07T12:26:24;7.90;99.90
2639;DHT22;1329;51.384;7.122;2022-12-07T12:28:55;7.90;99.90
2639;DHT22;1329;51.384;7.122;2022-12-07T12:31:34;7.90;99.90
2639;DHT22;1329;51.384;7.122;2022-12-07T12:34:30;7.90;99.90
2639;DHT22;1329;51.384;7.122;2022-12-07T12:37:40;7.90;99.90
2639;DHT22;1329;51.384;7.122;2022-12-07T12:40:38;7.90;99.90
2639;DHT22;1329;51.384;7.122;2022-12-07T12:43:40;7.90;99.90
2639;DHT22;1329;51.384;7.122;2022-12-07T12:46:51;7.90;99.90
2639;DHT22;1329;51.384;7.122;2022-12-07T12:49:44;7.90;99.90
2639;DHT22;1329;51.384;7.122;2022-12-07T12:52:55;7.90;99.90
2639;DHT22;1329;51.384;7.122;2022-12-07T12:55:52;8.00;99.90
2639;DHT22;1329;51.384;7.122;2022-12-07T12:58:42;7.90;99.90
2639;DHT22;1329;51.384;7.122;2022-12-07T13:01:36;7.90;99.90
2639;DHT22;1329;51.384;7.122;2022-12-07T13:04:48;7.90;99.90
2639;DHT22;1329;51.384;7.122;2022-12-07T13:08:00;7.90;99.90
2639;DHT22;1329;51.384;7.122;2022-12-07T13:10:41;7.90;99.90
2639;DHT22;1329;51.384;7.122;2022-12-07T13:13:34;7.90;99.90
2639;DHT22;1329;51.384;7.122;2022-12-07T13:22:41;8.00;99.90
2639;DHT22;1329;51.384;7.122;2022-12-07T13:25:19;8.00;99.90
2639;DHT22;1329;51.384;7.122;2022-12-07T13:27:56;8.00;99.90
2639;DHT22;1329;51.384;7.122;2022-12-07T13:30:32;8.00;99.90
2639;DHT22;1329;51.384;7.122;2022-12-07T13:33:03;8.00;99.90
2639;DHT22;1329;51.384;7.122;2022-12-07T13:35:32;8.10;99.90
2639;DHT22;1329;51.384;7.122;2022-12-07T13:38:04;8.00;99.90
2639;DHT22;1329;51.384;7.122;2022-12-07T13:40:41;8.00;99.90
2639;DHT22;1329;51.384;7.122;2022-12-07T13:43:14;8.00;99.90
2639;DHT22;1329;51.384;7.122;2022-12-07T13:45:42;8.00;99.90
2639;DHT22;1329;51.384;7.122;2022-12-07T13:48:21;7.90;99.90
2639;DHT22;1329;51.384;7.122;2022-12-07T13:50:57;7.90;99.90
2639;DHT22;1329;51.384;7.122;2022-12-07T13:53:25;7.90;99.90
2639;DHT22;1329;51.384;7.122;2022-12-07T13:55:57;8.00;99.90
2639;DHT22;1329;51.384;7.122;2022-12-07T13:58:27;7.90;99.90
2639;DHT22;1329;51.384;7.122;2022-12-07T14:00:59;7.80;99.90
2639;DHT22;1329;51.384;7.122;2022-12-07T14:03:29;7.80;99.90
2639;DHT22;1329;51.384;7.122;2022-12-07T14:06:15;7.80;99.90
2639;DHT22;1329;51.384;7.122;2022-12-07T14:08:45;7.70;99.90
2639;DHT22;1329;51.384;7.122;2022-12-07T14:11:19;7.60;99.90
2639;DHT22;1329;51.384;7.122;2022-12-07T14:13:58;7.60;99.90
2639;DHT22;1329;51.384;7.122;2022-12-07T14:16:31;7.60;99.90
2639;DHT22;1329;51.384;7.122;2022-12-07T14:19:01;7.50;99.90
2639;DHT22;1329;51.384;7.122;2022-12-07T14:21:30;7.40;99.90
2639;DHT22;1329;51.384;7.122;2022-12-07T14:24:10;7.40;99.90
2639;DHT22;1329;51.384;7.122;2022-12-07T14:26:45;7.30;99.90
2639;DHT22;1329;51.384;7.122;2022-12-07T14:29:20;7.20;99.90
2639;DHT22;1329;51.384;7.122;2022-12-07T14:31:53;7.20;99.90
2639;DHT22;1329;51.384;7.122;2022-12-07T14:34:21;7.10;99.90
2639;DHT22;1329;51.384;7.122;2022-12-07T14:36:48;7.10;99.90
2639;DHT22;1329;51.384;7.122;2022-12-07T14:39:16;7.10;99.90
2639;DHT22;1329;51.384;7.122;2022-12-07T14:41:45;7.00;99.90
2639;DHT22;1329;51.384;7.122;2022-12-07T14:44:18;7.00;99.90
2639;DHT22;1329;51.384;7.122;2022-12-07T14:46:46;6.90;99.90
2639;DHT22;1329;51.384;7.122;2022-12-07T14:49:14;6.90;99.90
2639;DHT22;1329;51.384;7.122;2022-12-07T14:51:42;6.80;99.90
2639;DHT22;1329;51.384;7.122;2022-12-07T14:54:16;6.80;99.90
2639;DHT22;1329;51.384;7.122;2022-12-07T14:56:49;6.80;99.90
2639;DHT22;1329;51.384;7.122;2022-12-07T14:59:17;6.70;99.90
2639;DHT22;1329;51.384;7.122;2022-12-07T15:01:45;6.70;99.90
2639;DHT22;1329;51.384;7.122;2022-12-07T15:04:12;6.60;99.90
2639;DHT22;1329;51.384;7.122;2022-12-07T15:06:39;6.60;99.90
2639;DHT22;1329;51.384;7.122;2022-12-07T15:09:10;6.50;99.90
2639;DHT22;1329;51.384;7.122;2022-12-07T15:11:40;6.50;99.90
2639;DHT22;1329;51.384;7.122;2022-12-07T15:14:08;6.40;99.90
2639;DHT22;1329;51.384;7.122;2022-12-07T15:16:38;6.40;99.90
2639;DHT22;1329;51.384;7.122;2022-12-07T15:19:12;6.30;99.90
2639;DHT22;1329;51.384;7.122;2022-12-07T15:21:41;6.30;99.90
2639;DHT22;1329;51.384;7.122;2022-12-07T15:24:09;6.30;99.90
2639;DHT22;1329;51.384;7.122;2022-12-07T15:26:38;6.20;99.90
2639;DHT22;1329;51.384;7.122;2022-12-07T15:29:11;6.10;99.90
2639;DHT22;1329;51.384;7.122;2022-12-07T15:31:40;6.10;99.90
2639;DHT22;1329;51.384;7.122;2022-12-07T15:34:07;6.10;99.90
2639;DHT22;1329;51.384;7.122;2022-12-07T15:36:34;6.00;99.90
2639;DHT22;1329;51.384;7.122;2022-12-07T15:39:02;6.00;99.90
2639;DHT22;1329;51.384;7.122;2022-12-07T15:41:29;6.00;99.90
2639;DHT22;1329;51.384;7.122;2022-12-07T15:43:57;5.90;99.90
2639;DHT22;1329;51.384;7.122;2022-12-07T15:46:43;5.90;99.90
2639;DHT22;1329;51.384;7.122;2022-12-07T15:49:12;5.90;99.90
2639;DHT22;1329;51.384;7.122;2022-12-07T15:51:43;5.90;99.90
2639;DHT22;1329;51.384;7.122;2022-12-07T15:54:13;5.90;99.90
2639;DHT22;1329;51.384;7.122;2022-12-07T15:56:44;5.80;99.90
2639;DHT22;1329;51.384;7.122;2022-12-07T15:59:11;5.80;99.90
2639;DHT22;1329;51.384;7.122;2022-12-07T16:01:43;5.80;99.90
2639;DHT22;1329;51.384;7.122;2022-12-07T16:04:11;5.80;99.90
2639;DHT22;1329;51.384;7.122;2022-12-07T16:06:39;5.70;99.90
2639;DHT22;1329;51.384;7.122;2022-12-07T16:09:07;5.70;99.90
2639;DHT22;1329;51.384;7.122;2022-12-07T16:11:34;5.70;99.90
2639;DHT22;1329;51.384;7.122;2022-12-07T16:14:01;5.70;99.90
2639;DHT22;1329;51.384;7.122;2022-12-07T16:16:29;5.80;99.90
2639;DHT22;1329;51.384;7.122;2022-12-07T16:18:58;5.80;99.90
2639;DHT22;1329;51.384;7.122;2022-12-07T16:21:25;5.80;99.90
2639;DHT22;1329;51.384;7.122;2022-12-07T16:23:52;5.80;99.90
2639;DHT22;1329;51.384;7.122;2022-12-07T16:26:21;5.80;99.90
2639;DHT22;1329;51.384;7.122;2022-12-07T16:28:49;5.80;99.90
2639;DHT22;1329;51.384;7.122;2022-12-07T16:31:19;5.90;99.90
2639;DHT22;1329;51.384;7.122;2022-12-07T16:33:48;5.90;99.90
2639;DHT22;1329;51.384;7.122;2022-12-07T16:36:17;5.90;99.90
2639;DHT22;1329;51.384;7.122;2022-12-07T16:38:46;5.90;99.90
2639;DHT22;1329;51.384;7.122;2022-12-07T16:41:15;5.90;99.90
2639;DHT22;1329;51.384;7.122;2022-12-07T16:43:43;5.90;99.90
2639;DHT22;1329;51.384;7.122;2022-12-07T16:46:10;5.90;99.90
2639;DHT22;1329;51.384;7.122;2022-12-07T16:48:39;5.90;99.90
2639;DHT22;1329;51.384;7.122;2022-12-07T16:51:09;6.00;99.90
2639;DHT22;1329;51.384;7.122;2022-12-07T16:53:41;6.00;99.90
2639;DHT22;1329;51.384;7.122;2022-12-07T16:56:10;6.00;99.90